sensor_id;sensor_type;location;lat;lon;timestamp;pressure;altitude;pressure_sealevel;temperature;humidity
63808;BME280;49961;43.970;22.868;2023-09-19T00:00:41;101757.88;;;18.06;100.00
63808;BME280;49961;43.970;22.868;2023-09-19T00:01:42;101664.13;;;17.51;100.00
63808;BME280;49961;43.970;22.868;2023-09-19T00:02:56;101770.13;;;17.99;100.00
63808;BME280;49961;43.970;22.868;2023-09-19T00:03:57;101742.75;;;18.03;100.00
63808;BME280;49961;43.970;22.868;2023-09-19T00:04:58;101746.31;;;18.03;100.00
63808;BME280;49961;43.970;22.868;2023-09-19T00:05:59;101717.03;;;17.83;100.00
63808;BME280;49961;43.970;22.868;2023-09-19T00:07:00;101748.47;;;17.99;100.00
63808;BME280;49961;43.970;22.868;2023-09-19T00:08:03;101737.72;;;17.98;100.00
63808;BME280;49961;43.970;22.868;2023-09-19T00:09:05;101737.25;;;17.99;100.00
63808;BME280;49961;43.970;22.868;2023-09-19T00:10:06;101737.25;;;17.99;100.00
63808;BME280;49961;43.970;22.868;2023-09-19T00:11:10;101712.53;;;17.86;100.00
63808;BME280;49961;43.970;22.868;2023-09-19T00:12:11;101732.88;;;17.98;100.00
63808;BME280;49961;43.970;22.868;2023-09-19T00:13:13;101726.16;;;17.96;100.00
63808;BME280;49961;43.970;22.868;2023-09-19T00:14:14;101721.34;;;17.97;100.00
63808;BME280;49961;43.970;22.868;2023-09-19T00:15:14;101700.22;;;17.83;100.00
63808;BME280;49961;43.970;22.868;2023-09-19T00:16:17;101696.63;;;17.83;100.00
63808;BME280;49961;43.970;22.868;2023-09-19T00:17:19;101716.50;;;17.97;100.00
63808;BME280;49961;43.970;22.868;2023-09-19T00:18:20;101608.72;;;17.33;100.00
63808;BME280;49961;43.970;22.868;2023-09-19T00:19:24;101712.94;;;17.97;100.00
63808;BME280;49961;43.970;22.868;2023-09-19T00:20:25;101714.78;;;17.99;100.00
63808;BME280;49961;43.970;22.868;2023-09-19T00:21:25;101711.69;;;17.98;100.00
63808;BME280;49961;43.970;22.868;2023-09-19T00:22:26;101722.91;;;17.98;100.00
63808;BME280;49961;43.970;22.868;2023-09-19T00:23:27;101715.59;;;18.00;100.00
63808;BME280;49961;43.970;22.868;2023-09-19T00:24:28;101719.63;;;17.99;100.00
63808;BME280;49961;43.970;22.868;2023-09-19T00:25:28;101722.75;;;18.01;100.00
63808;BME280;49961;43.970;22.868;2023-09-19T00:26:31;101657.75;;;17.51;100.00
63808;BME280;49961;43.970;22.868;2023-09-19T00:27:32;101730.72;;;18.02;100.00
63808;BME280;49961;43.970;22.868;2023-09-19T00:28:33;101728.22;;;18.04;100.00
63808;BME280;49961;43.970;22.868;2023-09-19T00:29:35;101728.97;;;17.96;100.00
63808;BME280;49961;43.970;22.868;2023-09-19T00:30:36;101730.72;;;18.02;100.00
63808;BME280;49961;43.970;22.868;2023-09-19T00:31:38;101736.34;;;18.02;100.00
63808;BME280;49961;43.970;22.868;2023-09-19T00:32:40;101733.97;;;18.01;100.00
63808;BME280;49961;43.970;22.868;2023-09-19T00:33:41;101735.53;;;18.02;100.00
63808;BME280;49961;43.970;22.868;2023-09-19T00:34:42;101730.41;;;18.01;100.00
63808;BME280;49961;43.970;22.868;2023-09-19T00:35:49;101729.63;;;18.00;100.00
63808;BME280;49961;43.970;22.868;2023-09-19T00:36:51;101744.44;;;18.01;100.00
63808;BME280;49961;43.970;22.868;2023-09-19T00:37:53;101732.41;;;18.00;100.00
63808;BME280;49961;43.970;22.868;2023-09-19T00:38:54;101727.72;;;17.97;100.00
63808;BME280;49961;43.970;22.868;2023-09-19T00:39:54;101731.00;;;17.96;100.00
63808;BME280;49961;43.970;22.868;2023-09-19T00:40:55;101730.19;;;17.95;100.00
63808;BME280;49961;43.970;22.868;2023-09-19T00:41:57;101741.41;;;17.95;100.00
63808;BME280;49961;43.970;22.868;2023-09-19T00:42:58;101740.75;;;17.91;100.00
63808;BME280;49961;43.970;22.868;2023-09-19T00:44:02;101675.53;;;17.57;100.00
63808;BME280;49961;43.970;22.868;2023-09-19T00:45:05;101731.59;;;17.91;100.00
63808;BME280;49961;43.970;22.868;2023-09-19T00:46:06;101719.25;;;17.88;100.00
63808;BME280;49961;43.970;22.868;2023-09-19T00:47:07;101717.56;;;17.91;100.00
63808;BME280;49961;43.970;22.868;2023-09-19T00:48:09;101709.06;;;17.82;100.00
63808;BME280;49961;43.970;22.868;2023-09-19T00:49:10;101718.00;;;17.89;100.00
63808;BME280;49961;43.970;22.868;2023-09-19T00:50:11;101713.19;;;17.90;100.00
63808;BME280;49961;43.970;22.868;2023-09-19T00:51:15;101716.75;;;17.90;100.00
63808;BME280;49961;43.970;22.868;2023-09-19T00:52:19;101723.63;;;17.89;100.00
63808;BME280;49961;43.970;22.868;2023-09-19T00:53:21;101721.13;;;17.91;100.00
63808;BME280;49961;43.970;22.868;2023-09-19T00:54:23;101720.69;;;17.92;100.00
63808;BME280;49961;43.970;22.868;2023-09-19T00:55:25;101730.66;;;17.93;100.00
63808;BME280;49961;43.970;22.868;2023-09-19T00:56:25;101722.38;;;17.90;100.00
63808;BME280;49961;43.970;22.868;2023-09-19T00:57:27;101664.13;;;17.51;100.00
63808;BME280;49961;43.970;22.868;2023-09-19T00:58:27;101731.00;;;17.96;100.00
63808;BME280;49961;43.970;22.868;2023-09-19T00:59:32;101725.53;;;17.92;100.00
63808;BME280;49961;43.970;22.868;2023-09-19T01:00:33;101726.50;;;17.98;100.00
63808;BME280;49961;43.970;22.868;2023-09-19T01:01:34;101726.50;;;17.98;100.00
63808;BME280;49961;43.970;22.868;2023-09-19T01:02:35;101686.03;;;17.65;100.00
63808;BME280;49961;43.970;22.868;2023-09-19T01:03:38;101723.03;;;17.94;100.00
63808;BME280;49961;43.970;22.868;2023-09-19T01:04:40;101727.22;;;17.90;100.00
63808;BME280;49961;43.970;22.868;2023-09-19T01:05:41;101718.00;;;17.89;100.00
63808;BME280;49961;43.970;22.868;2023-09-19T01:06:42;101722.38;;;17.90;100.00
63808;BME280;49961;43.970;22.868;2023-09-19T01:07:46;101634.25;;;17.35;100.00
63808;BME280;49961;43.970;22.868;2023-09-19T01:08:48;101666.81;;;17.55;100.00
63808;BME280;49961;43.970;22.868;2023-09-19T01:09:49;101724.41;;;17.90;100.00
63808;BME280;49961;43.970;22.868;2023-09-19T01:10:59;101722.81;;;17.88;100.00
63808;BME280;49961;43.970;22.868;2023-09-19T01:12:02;101732.03;;;17.89;100.00
63808;BME280;49961;43.970;22.868;2023-09-19T01:15:51;101735.56;;;17.81;100.00
63808;BME280;49961;43.970;22.868;2023-09-19T01:17:09;101693.50;;;17.47;100.00
63808;BME280;49961;43.970;22.868;2023-09-19T01:30:14;101734.78;;;17.46;100.00
63808;BME280;49961;43.970;22.868;2023-09-19T01:31:17;101732.44;;;17.45;100.00
63808;BME280;49961;43.970;22.868;2023-09-19T01:32:21;101732.00;;;17.46;100.00
63808;BME280;49961;43.970;22.868;2023-09-19T01:33:22;101670.41;;;17.08;100.00
63808;BME280;49961;43.970;22.868;2023-09-19T01:34:23;101743.06;;;17.50;100.00
63808;BME280;49961;43.970;22.868;2023-09-19T01:35:23;101734.19;;;17.51;100.00
63808;BME280;49961;43.970;22.868;2023-09-19T01:36:24;101699.97;;;17.22;100.00
63808;BME280;49961;43.970;22.868;2023-09-19T01:37:25;101736.88;;;17.55;100.00
63808;BME280;49961;43.970;22.868;2023-09-19T01:38:26;101736.09;;;17.54;100.00
63808;BME280;49961;43.970;22.868;2023-09-19T01:39:29;101738.91;;;17.54;100.00
63808;BME280;49961;43.970;22.868;2023-09-19T01:40:29;101736.53;;;17.52;100.00
63808;BME280;49961;43.970;22.868;2023-09-19T01:43:18;101753.63;;;17.46;100.00
63808;BME280;49961;43.970;22.868;2023-09-19T01:44:22;101736.22;;;17.38;100.00
63808;BME280;49961;43.970;22.868;2023-09-19T01:46:46;101746.63;;;17.37;100.00
63808;BME280;49961;43.970;22.868;2023-09-19T01:47:55;101739.03;;;17.38;100.00
63808;BME280;49961;43.970;22.868;2023-09-19T01:49:10;101744.31;;;17.36;100.00
63808;BME280;49961;43.970;22.868;2023-09-19T01:50:32;101746.63;;;17.37;100.00
63808;BME280;49961;43.970;22.868;2023-09-19T01:53:15;101695.84;;;17.01;100.00
63808;BME280;49961;43.970;22.868;2023-09-19T01:54:26;101701.22;;;17.08;100.00
63808;BME280;49961;43.970;22.868;2023-09-19T01:55:28;101739.38;;;17.40;100.00
63808;BME280;49961;43.970;22.868;2023-09-19T01:56:50;101647.41;;;16.79;100.00
63808;BME280;49961;43.970;22.868;2023-09-19T01:59:13;101739.47;;;17.36;100.00
63808;BME280;49961;43.970;22.868;2023-09-19T02:00:16;101734.66;;;17.37;100.00
63808;BME280;49961;43.970;22.868;2023-09-19T02:01:20;101671.00;;;16.91;100.00
63808;BME280;49961;43.970;22.868;2023-09-19T02:02:22;101648.19;;;16.80;100.00
63808;BME280;49961;43.970;22.868;2023-09-19T02:03:24;101721.00;;;17.26;100.00
63808;BME280;49961;43.970;22.868;2023-09-19T02:04:27;101693.38;;;17.03;100.00
63808;BME280;49961;43.970;22.868;2023-09-19T02:05:28;101738.47;;;17.30;100.00
63808;BME280;49961;43.970;22.868;2023-09-19T02:06:29;101730.88;;;17.31;100.00
63808;BME280;49961;43.970;22.868;2023-09-19T02:07:30;101684.75;;;16.98;100.00
63808;BME280;49961;43.970;22.868;2023-09-19T02:08:32;101737.59;;;17.33;100.00
63808;BME280;49961;43.970;22.868;2023-09-19T02:09:34;101731.50;;;17.35;100.00
63808;BME280;49961;43.970;22.868;2023-09-19T02:10:39;101715.41;;;17.26;100.00
63808;BME280;49961;43.970;22.868;2023-09-19T02:11:41;101733.09;;;17.36;100.00
63808;BME280;49961;43.970;22.868;2023-09-19T02:12:42;101678.59;;;17.03;100.00
63808;BME280;49961;43.970;22.868;2023-09-19T02:13:42;101727.81;;;17.38;100.00
63808;BME280;49961;43.970;22.868;2023-09-19T02:14:43;101729.41;;;17.39;100.00
63808;BME280;49961;43.970;22.868;2023-09-19T02:15:44;101732.09;;;17.42;100.00
63808;BME280;49961;43.970;22.868;2023-09-19T02:16:45;101725.84;;;17.39;100.00
63808;BME280;49961;43.970;22.868;2023-09-19T02:17:46;101687.84;;;17.12;100.00
63808;BME280;49961;43.970;22.868;2023-09-19T02:18:48;101742.72;;;17.48;100.00
63808;BME280;49961;43.970;22.868;2023-09-19T02:19:50;101744.31;;;17.49;100.00
63808;BME280;49961;43.970;22.868;2023-09-19T02:20:50;101746.44;;;17.45;100.00
63808;BME280;49961;43.970;22.868;2023-09-19T02:21:51;101747.00;;;17.40;100.00
63808;BME280;49961;43.970;22.868;2023-09-19T02:22:52;101742.28;;;17.36;100.00
63808;BME280;49961;43.970;22.868;2023-09-19T02:23:53;101689.50;;;16.88;100.00
63808;BME280;49961;43.970;22.868;2023-09-19T02:24:53;101740.41;;;17.33;100.00
63808;BME280;49961;43.970;22.868;2023-09-19T02:25:54;101654.44;;;16.71;100.00
63808;BME280;49961;43.970;22.868;2023-09-19T02:26:54;101741.50;;;17.36;100.00
63808;BME280;49961;43.970;22.868;2023-09-19T02:27:56;101737.13;;;17.35;100.00
63808;BME280;49961;43.970;22.868;2023-09-19T02:28:58;101656.59;;;16.80;100.00
63808;BME280;49961;43.970;22.868;2023-09-19T02:29:59;101645.47;;;16.76;100.00
63808;BME280;49961;43.970;22.868;2023-09-19T02:31:04;101659.81;;;16.91;100.00
63808;BME280;49961;43.970;22.868;2023-09-19T02:32:05;101740.97;;;17.41;100.00
63808;BME280;49961;43.970;22.868;2023-09-19T02:33:06;101733.78;;;17.40;100.00
63808;BME280;49961;43.970;22.868;2023-09-19T02:34:08;101728.72;;;17.35;100.00
63808;BME280;49961;43.970;22.868;2023-09-19T02:35:09;101731.88;;;17.37;100.00
63808;BME280;49961;43.970;22.868;2023-09-19T02:36:11;101726.25;;;17.37;100.00
63808;BME280;49961;43.970;22.868;2023-09-19T02:37:11;101727.81;;;17.38;100.00
63808;BME280;49961;43.970;22.868;2023-09-19T02:38:13;101723.34;;;17.28;100.00
63808;BME280;49961;43.970;22.868;2023-09-19T02:39:14;101713.97;;;17.22;100.00
63808;BME280;49961;43.970;22.868;2023-09-19T02:40:15;101733.41;;;17.38;100.00
63808;BME280;49961;43.970;22.868;2023-09-19T02:41:18;101738.63;;;17.40;100.00
63808;BME280;49961;43.970;22.868;2023-09-19T02:42:19;101738.94;;;17.42;100.00
63808;BME280;49961;43.970;22.868;2023-09-19T02:43:19;101740.03;;;17.44;100.00
63808;BME280;49961;43.970;22.868;2023-09-19T02:44:20;101739.59;;;17.46;100.00
63808;BME280;49961;43.970;22.868;2023-09-19T02:45:21;101716.06;;;17.30;100.00
63808;BME280;49961;43.970;22.868;2023-09-19T02:46:22;101709.78;;;17.26;100.00
63808;BME280;49961;43.970;22.868;2023-09-19T02:47:23;101673.91;;;17.00;100.00
63808;BME280;49961;43.970;22.868;2023-09-19T02:48:24;101667.28;;;17.06;100.00
63808;BME280;49961;43.970;22.868;2023-09-19T02:49:25;101724.69;;;17.49;100.00
63808;BME280;49961;43.970;22.868;2023-09-19T02:50:26;101731.38;;;17.51;100.00
63808;BME280;49961;43.970;22.868;2023-09-19T02:51:26;101727.03;;;17.50;100.00
63808;BME280;49961;43.970;22.868;2023-09-19T02:52:27;101725.78;;;17.51;100.00
63808;BME280;49961;43.970;22.868;2023-09-19T02:53:27;101725.31;;;17.52;100.00
63808;BME280;49961;43.970;22.868;2023-09-19T02:54:28;101731.38;;;17.51;100.00
63808;BME280;49961;43.970;22.868;2023-09-19T02:55:28;101726.13;;;17.53;100.00
63808;BME280;49961;43.970;22.868;2023-09-19T02:56:29;101728.78;;;17.57;100.00
63808;BME280;49961;43.970;22.868;2023-09-19T02:57:30;101719.94;;;17.58;100.00
63808;BME280;49961;43.970;22.868;2023-09-19T02:58:33;101724.63;;;17.61;100.00
63808;BME280;49961;43.970;22.868;2023-09-19T02:59:35;101723.06;;;17.60;100.00
63808;BME280;49961;43.970;22.868;2023-09-19T03:00:37;101724.16;;;17.63;100.00
63808;BME280;49961;43.970;22.868;2023-09-19T03:01:38;101716.03;;;17.56;100.00
63808;BME280;49961;43.970;22.868;2023-09-19T03:02:38;101723.59;;;17.67;100.00
63808;BME280;49961;43.970;22.868;2023-09-19T03:03:41;101720.78;;;17.67;100.00
63808;BME280;49961;43.970;22.868;2023-09-19T03:04:41;101719.53;;;17.68;100.00
63808;BME280;49961;43.970;22.868;2023-09-19T03:05:42;101684.97;;;17.50;100.00
63808;BME280;49961;43.970;22.868;2023-09-19T03:06:47;101715.06;;;17.71;100.00
63808;BME280;49961;43.970;22.868;2023-09-19T03:07:49;101712.72;;;17.70;100.00
63808;BME280;49961;43.970;22.868;2023-09-19T03:08:52;101710.69;;;17.70;100.00
63808;BME280;49961;43.970;22.868;2023-09-19T03:09:53;101709.00;;;17.73;100.00
63808;BME280;49961;43.970;22.868;2023-09-19T03:10:54;101711.81;;;17.73;100.00
63808;BME280;49961;43.970;22.868;2023-09-19T03:11:54;101704.94;;;17.73;100.00
63808;BME280;49961;43.970;22.868;2023-09-19T03:12:55;101707.31;;;17.75;100.00
63808;BME280;49961;43.970;22.868;2023-09-19T03:13:55;101692.00;;;17.67;100.00
63808;BME280;49961;43.970;22.868;2023-09-19T03:14:56;101679.50;;;17.47;100.00
63808;BME280;49961;43.970;22.868;2023-09-19T03:15:57;101714.03;;;17.77;100.00
63808;BME280;49961;43.970;22.868;2023-09-19T03:16:58;101714.38;;;17.80;100.00
63808;BME280;49961;43.970;22.868;2023-09-19T03:17:59;101660.69;;;17.47;100.00
63808;BME280;49961;43.970;22.868;2023-09-19T03:19:00;101711.44;;;17.83;100.00
63808;BME280;49961;43.970;22.868;2023-09-19T03:20:00;101677.63;;;17.65;100.00
63808;BME280;49961;43.970;22.868;2023-09-19T03:21:01;101708.50;;;17.87;100.00
63808;BME280;49961;43.970;22.868;2023-09-19T03:22:01;101710.97;;;17.85;100.00
63808;BME280;49961;43.970;22.868;2023-09-19T03:23:03;101719.69;;;17.87;100.00
63808;BME280;49961;43.970;22.868;2023-09-19T03:24:06;101698.44;;;17.77;100.00
63808;BME280;49961;43.970;22.868;2023-09-19T03:25:07;101722.81;;;17.88;100.00
63808;BME280;49961;43.970;22.868;2023-09-19T03:26:12;101722.06;;;17.88;100.00
63808;BME280;49961;43.970;22.868;2023-09-19T03:27:14;101722.66;;;17.83;100.00
63808;BME280;49961;43.970;22.868;2023-09-19T03:28:16;101719.19;;;17.79;100.00
63808;BME280;49961;43.970;22.868;2023-09-19T03:29:16;101662.50;;;17.41;100.00
63808;BME280;49961;43.970;22.868;2023-09-19T03:30:17;101719.97;;;17.80;100.00
63808;BME280;49961;43.970;22.868;2023-09-19T03:31:17;101726.34;;;17.80;100.00
63808;BME280;49961;43.970;22.868;2023-09-19T03:32:18;101705.06;;;17.70;100.00
63808;BME280;49961;43.970;22.868;2023-09-19T03:33:19;101717.03;;;17.83;100.00
63808;BME280;49961;43.970;22.868;2023-09-19T03:34:20;101718.72;;;17.81;100.00
63808;BME280;49961;43.970;22.868;2023-09-19T03:35:21;101711.44;;;17.83;100.00
63808;BME280;49961;43.970;22.868;2023-09-19T03:36:21;101715.00;;;17.83;100.00
63808;BME280;49961;43.970;22.868;2023-09-19T03:37:21;101715.00;;;17.83;100.00
63808;BME280;49961;43.970;22.868;2023-09-19T03:38:22;101718.16;;;17.86;100.00
63808;BME280;49961;43.970;22.868;2023-09-19T03:39:23;101710.84;;;17.88;100.00
63808;BME280;49961;43.970;22.868;2023-09-19T03:40:24;101633.78;;;17.37;100.00
63808;BME280;49961;43.970;22.868;2023-09-19T03:41:25;101626.63;;;17.36;100.00
63808;BME280;49961;43.970;22.868;2023-09-19T03:42:26;101719.13;;;17.92;100.00
63808;BME280;49961;43.970;22.868;2023-09-19T03:43:26;101702.66;;;17.81;100.00
63808;BME280;49961;43.970;22.868;2023-09-19T03:44:27;101713.66;;;17.88;100.00
63808;BME280;49961;43.970;22.868;2023-09-19T03:45:27;101718.81;;;17.90;100.00
63808;BME280;49961;43.970;22.868;2023-09-19T03:46:28;101717.22;;;17.88;100.00
63808;BME280;49961;43.970;22.868;2023-09-19T03:47:29;101701.78;;;17.84;100.00
63808;BME280;49961;43.970;22.868;2023-09-19T03:48:29;101707.69;;;17.86;100.00
63808;BME280;49961;43.970;22.868;2023-09-19T03:49:30;101717.56;;;17.91;100.00
63808;BME280;49961;43.970;22.868;2023-09-19T03:50:30;101717.09;;;17.92;100.00
63808;BME280;49961;43.970;22.868;2023-09-19T03:51:33;101717.88;;;17.92;100.00
63808;BME280;49961;43.970;22.868;2023-09-19T03:52:34;101708.69;;;17.92;100.00
63808;BME280;49961;43.970;22.868;2023-09-19T03:53:34;101603.78;;;17.25;100.00
63808;BME280;49961;43.970;22.868;2023-09-19T03:54:35;101704.66;;;17.93;100.00
63808;BME280;49961;43.970;22.868;2023-09-19T03:55:35;101647.81;;;17.58;100.00
63808;BME280;49961;43.970;22.868;2023-09-19T03:56:36;101699.03;;;17.93;100.00
63808;BME280;49961;43.970;22.868;2023-09-19T03:57:37;101677.88;;;18.23;100.00
63808;BME280;49961;43.970;22.868;2023-09-19T03:58:38;101704.63;;;19.15;100.00
63808;BME280;49961;43.970;22.868;2023-09-19T03:59:40;101702.94;;;19.63;100.00
63808;BME280;49961;43.970;22.868;2023-09-19T04:00:42;101700.44;;;20.10;100.00
63808;BME280;49961;43.970;22.868;2023-09-19T04:01:43;101701.78;;;20.32;100.00
63808;BME280;49961;43.970;22.868;2023-09-19T04:02:43;101700.50;;;20.42;100.00
63808;BME280;49961;43.970;22.868;2023-09-19T04:03:46;101693.56;;;20.61;100.00
63808;BME280;49961;43.970;22.868;2023-09-19T04:04:53;101692.22;;;21.13;100.00
63808;BME280;49961;43.970;22.868;2023-09-19T04:05:54;101615.31;;;20.89;100.00
63808;BME280;49961;43.970;22.868;2023-09-19T04:06:55;101687.44;;;21.66;100.00
63808;BME280;49961;43.970;22.868;2023-09-19T04:07:55;101680.47;;;21.90;100.00
63808;BME280;49961;43.970;22.868;2023-09-19T04:08:56;101680.78;;;22.21;100.00
63808;BME280;49961;43.970;22.868;2023-09-19T04:09:57;101679.78;;;22.39;100.00
63808;BME280;49961;43.970;22.868;2023-09-19T04:10:58;101599.13;;;21.89;100.00
63808;BME280;49961;43.970;22.868;2023-09-19T04:11:58;101679.94;;;22.44;100.00
63808;BME280;49961;43.970;22.868;2023-09-19T04:12:59;101673.66;;;22.40;100.00
63808;BME280;49961;43.970;22.868;2023-09-19T04:14:03;101633.97;;;22.15;100.00
63808;BME280;49961;43.970;22.868;2023-09-19T04:15:07;101601.53;;;22.10;100.00
63808;BME280;49961;43.970;22.868;2023-09-19T04:16:08;101629.66;;;22.48;100.00
63808;BME280;49961;43.970;22.868;2023-09-19T04:17:09;101622.81;;;22.55;100.00
63808;BME280;49961;43.970;22.868;2023-09-19T04:18:10;101586.22;;;22.31;100.00
63808;BME280;49961;43.970;22.868;2023-09-19T04:19:11;101667.50;;;23.05;100.00
63808;BME280;49961;43.970;22.868;2023-09-19T04:20:11;101663.25;;;22.95;100.00
63808;BME280;49961;43.970;22.868;2023-09-19T04:21:16;101665.63;;;23.02;100.00
63808;BME280;49961;43.970;22.868;2023-09-19T04:22:16;101666.97;;;23.07;100.00
63808;BME280;49961;43.970;22.868;2023-09-19T04:23:17;101626.81;;;22.83;100.00
63808;BME280;49961;43.970;22.868;2023-09-19T04:24:17;101664.44;;;23.09;100.00
63808;BME280;49961;43.970;22.868;2023-09-19T04:25:19;101632.06;;;22.90;100.00
63808;BME280;49961;43.970;22.868;2023-09-19T04:26:20;101665.78;;;23.13;100.00
63808;BME280;49961;43.970;22.868;2023-09-19T04:27:22;101594.59;;;22.75;100.00
63808;BME280;49961;43.970;22.868;2023-09-19T04:28:23;101663.75;;;23.14;100.00
63808;BME280;49961;43.970;22.868;2023-09-19T04:29:24;101623.66;;;22.95;100.00
63808;BME280;49961;43.970;22.868;2023-09-19T04:30:26;101636.94;;;23.09;100.00
63808;BME280;49961;43.970;22.868;2023-09-19T04:31:27;101662.38;;;23.24;100.00
63808;BME280;49961;43.970;22.868;2023-09-19T04:32:28;101674.25;;;23.28;100.00
63808;BME280;49961;43.970;22.868;2023-09-19T04:33:29;101654.22;;;23.31;100.00
63808;BME280;49961;43.970;22.868;2023-09-19T04:34:30;101661.34;;;23.27;100.00
63808;BME280;49961;43.970;22.868;2023-09-19T04:35:31;101594.72;;;22.66;100.00
63808;BME280;49961;43.970;22.868;2023-09-19T04:36:31;101627.16;;;22.70;100.00
63808;BME280;49961;43.970;22.868;2023-09-19T04:37:32;101656.97;;;22.71;100.00
63808;BME280;49961;43.970;22.868;2023-09-19T04:38:33;101658.19;;;22.50;100.00
63808;BME280;49961;43.970;22.868;2023-09-19T04:39:34;101662.78;;;22.33;100.00
63808;BME280;49961;43.970;22.868;2023-09-19T04:40:34;101602.81;;;21.80;100.00
63808;BME280;49961;43.970;22.868;2023-09-19T04:41:35;101607.84;;;21.62;100.00
63808;BME280;49961;43.970;22.868;2023-09-19T04:42:37;101664.53;;;21.87;100.00
63808;BME280;49961;43.970;22.868;2023-09-19T04:43:37;101673.75;;;21.73;100.00
63808;BME280;49961;43.970;22.868;2023-09-19T04:44:38;101669.91;;;21.62;100.00
63808;BME280;49961;43.970;22.868;2023-09-19T04:45:39;101669.69;;;21.51;100.00
63808;BME280;49961;43.970;22.868;2023-09-19T04:46:42;101641.41;;;21.22;100.00
63808;BME280;49961;43.970;22.868;2023-09-19T04:47:43;101614.22;;;20.95;100.00
63808;BME280;49961;43.970;22.868;2023-09-19T04:48:44;101657.56;;;21.21;100.00
63808;BME280;49961;43.970;22.868;2023-09-19T04:49:44;101611.28;;;20.81;100.00
63808;BME280;49961;43.970;22.868;2023-09-19T04:50:45;101668.94;;;21.03;100.00
63808;BME280;49961;43.970;22.868;2023-09-19T04:51:45;101658.50;;;20.95;100.00
63808;BME280;49961;43.970;22.868;2023-09-19T04:52:49;101665.75;;;20.87;100.00
63808;BME280;49961;43.970;22.868;2023-09-19T04:53:51;101645.81;;;20.67;100.00
63808;BME280;49961;43.970;22.868;2023-09-19T04:54:51;101666.44;;;20.73;100.00
63808;BME280;49961;43.970;22.868;2023-09-19T04:55:52;101667.41;;;20.61;100.00
63808;BME280;49961;43.970;22.868;2023-09-19T04:56:53;101682.00;;;20.59;100.00
63808;BME280;49961;43.970;22.868;2023-09-19T04:57:53;101688.09;;;20.58;100.00
63808;BME280;49961;43.970;22.868;2023-09-19T04:58:54;101689.69;;;20.50;100.00
63808;BME280;49961;43.970;22.868;2023-09-19T04:59:54;101664.16;;;20.21;100.00
63808;BME280;49961;43.970;22.868;2023-09-19T05:00:55;101706.00;;;20.37;100.00
63808;BME280;49961;43.970;22.868;2023-09-19T05:01:59;101663.69;;;20.04;100.00
63808;BME280;49961;43.970;22.868;2023-09-19T05:03:00;101685.56;;;20.18;100.00
63808;BME280;49961;43.970;22.868;2023-09-19T05:04:01;101712.56;;;20.34;100.00
63808;BME280;49961;43.970;22.868;2023-09-19T05:05:07;101695.13;;;20.21;100.00
63808;BME280;49961;43.970;22.868;2023-09-19T05:06:08;101598.13;;;19.62;100.00
63808;BME280;49961;43.970;22.868;2023-09-19T05:07:08;101638.09;;;19.84;100.00
63808;BME280;49961;43.970;22.868;2023-09-19T05:08:12;101692.59;;;20.23;100.00
63808;BME280;49961;43.970;22.868;2023-09-19T05:09:14;101688.53;;;20.24;100.00
63808;BME280;49961;43.970;22.868;2023-09-19T05:10:40;101678.69;;;20.19;100.00
63808;BME280;49961;43.970;22.868;2023-09-19T05:11:41;101566.13;;;19.42;100.00
63808;BME280;49961;43.970;22.868;2023-09-19T05:12:41;101680.41;;;20.17;100.00
63808;BME280;49961;43.970;22.868;2023-09-19T05:13:43;101666.66;;;20.10;100.00
63808;BME280;49961;43.970;22.868;2023-09-19T05:14:44;101674.97;;;20.13;100.00
63808;BME280;49961;43.970;22.868;2023-09-19T05:15:44;101674.97;;;20.13;100.00
63808;BME280;49961;43.970;22.868;2023-09-19T05:16:45;101686.97;;;20.14;100.00
63808;BME280;49961;43.970;22.868;2023-09-19T05:17:49;101645.91;;;19.80;100.00
63808;BME280;49961;43.970;22.868;2023-09-19T05:18:55;101673.53;;;20.09;100.00
63808;BME280;49961;43.970;22.868;2023-09-19T05:19:57;101677.78;;;20.13;100.00
63808;BME280;49961;43.970;22.868;2023-09-19T05:20:58;101681.34;;;20.14;100.00
63808;BME280;49961;43.970;22.868;2023-09-19T05:21:58;101662.75;;;20.07;100.00
63808;BME280;49961;43.970;22.868;2023-09-19T05:24:03;101672.63;;;20.12;100.00
63808;BME280;49961;43.970;22.868;2023-09-19T05:25:04;101661.66;;;20.05;100.00
63808;BME280;49961;43.970;22.868;2023-09-19T05:26:05;101672.00;;;20.08;100.00
63808;BME280;49961;43.970;22.868;2023-09-19T05:27:06;101670.88;;;20.05;100.00
63808;BME280;49961;43.970;22.868;2023-09-19T05:28:09;101676.03;;;20.07;100.00
63808;BME280;49961;43.970;22.868;2023-09-19T05:29:10;101635.56;;;19.86;100.00
63808;BME280;49961;43.970;22.868;2023-09-19T05:30:11;101651.34;;;20.02;100.00
63808;BME280;49961;43.970;22.868;2023-09-19T05:31:14;101650.41;;;20.05;100.00
63808;BME280;49961;43.970;22.868;2023-09-19T05:32:16;101644.91;;;20.01;100.00
63808;BME280;49961;43.970;22.868;2023-09-19T05:33:18;101656.03;;;20.05;100.00
63808;BME280;49961;43.970;22.868;2023-09-19T05:34:19;101654.44;;;20.04;100.00
63808;BME280;49961;43.970;22.868;2023-09-19T05:35:20;101631.38;;;19.91;100.00
63808;BME280;49961;43.970;22.868;2023-09-19T05:36:24;101597.66;;;19.64;100.00
63808;BME280;49961;43.970;22.868;2023-09-19T05:37:25;101664.63;;;20.10;100.00